マヘ島 の空港の天気 - METARとTAF

セーシェル国際空港 ( FSIA / SEZ ) - セーシェル マヘ島
飛行場実況気象(Metar)
観測時間10/16 12:00 SCT (10/16 08:00 UTC)
風向・風速東南東 5m/s
視程10km以上
天気現象
全天の4割程度の雲 雲底高度 610m
気温29℃
湿度79%
気圧1011hPa
METARFSIA 160800Z 12010KT 9999 SCT020 29/25 Q1011 NOSIG
過去の天気等 Google飛行場航空写真 Wunderground天気予報

過去48時間のMETAR

飛行場予報(TAF)
発表時間: 10/16 09:04 SCT (10/16 05:04 UTC)
予報対象時間: 16日10時 SCT ~ 17日10時 SCT
風向・風速南南東 5m/s
視程10km以上
全天の4割程度の雲 雲底高度 610m
16日12時 SCT ~ 16日18時 SCT に 確率 40% で一時的に
天気現象弱いしゅう雨
少しの雲 雲底高度 370m
少しの積乱雲 雲底高度 490m
全天の8割程度の雲 雲底高度 550m
16日22時 SCT ~ 17日6時 SCT に一時的に
視程8000m
天気現象しゅう雨
少しの雲 雲底高度 300m
少しの積乱雲 雲底高度 460m
全天の8割程度の雲 雲底高度 520m
17日2時 SCT ~ 17日4時 SCT に 確率 40% で一時的に
視程5000m
天気現象雷雨
少しの雲 雲底高度 270m
少しの積乱雲 雲底高度 430m
全天の8割程度の雲 雲底高度 490m
TAF FSIA 160504Z 1606/1706 15010KT 9999 SCT020
PROB40 TEMPO 1608/1614 -SHRA FEW012 FEW016CB BKN018
TEMPO 1618/1702 8000 SHRA FEW010 FEW015CB BKN017
PROB40 TEMPO 1622/1700 5000 TSRA FEW009 FEW014CB BKN016